createdAt,value
2019-02-19T00:01:29.621Z,92.30
2019-02-19T00:03:58.081Z,92.30
2019-02-19T00:06:27.446Z,92.50
2019-02-19T00:08:56.826Z,92.70
2019-02-19T00:11:25.278Z,92.30
2019-02-19T00:13:53.651Z,92.30
2019-02-19T00:16:23.665Z,92.30
2019-02-19T00:18:52.079Z,92.60
2019-02-19T00:21:22.147Z,92.50
2019-02-19T00:23:50.558Z,92.30
2019-02-19T00:26:19.249Z,92.30
2019-02-19T00:28:47.737Z,92.30
2019-02-19T00:31:16.120Z,92.20
2019-02-19T00:33:44.535Z,92.40
2019-02-19T00:36:12.960Z,92.40
2019-02-19T00:38:41.344Z,92.40
2019-02-19T00:41:09.826Z,92.40
2019-02-19T00:43:38.223Z,92.50
2019-02-19T00:46:06.644Z,92.50
2019-02-19T00:48:35.033Z,92.60
2019-02-19T00:51:03.426Z,92.40
2019-02-19T00:53:31.846Z,92.30
2019-02-19T00:56:00.294Z,92.40
2019-02-19T00:58:28.678Z,92.50
2019-02-19T01:00:57.099Z,92.60
2019-02-19T01:03:25.506Z,92.50
2019-02-19T01:05:53.885Z,92.60
2019-02-19T01:08:22.317Z,92.60
2019-02-19T01:10:50.707Z,92.70
2019-02-19T01:13:19.096Z,92.70
2019-02-19T01:15:48.593Z,92.70
2019-02-19T01:18:23.434Z,92.60
2019-02-19T01:20:57.644Z,92.70
2019-02-19T01:23:26.459Z,92.70
2019-02-19T01:25:54.859Z,93.00
2019-02-19T01:28:23.294Z,92.60
2019-02-19T01:30:51.739Z,92.50
2019-02-19T01:33:29.716Z,92.50
2019-02-19T01:35:58.196Z,92.50
2019-02-19T01:38:26.578Z,92.50
2019-02-19T01:40:55.870Z,92.50
2019-02-19T01:43:24.282Z,92.40
2019-02-19T01:45:52.712Z,92.40
2019-02-19T01:48:21.097Z,92.50
2019-02-19T01:50:49.525Z,92.80
2019-02-19T01:53:17.939Z,92.40
2019-02-19T01:55:46.339Z,92.50
2019-02-19T01:58:14.746Z,92.40
2019-02-19T02:00:43.202Z,92.30
2019-02-19T02:03:11.594Z,92.40
2019-02-19T02:05:40.048Z,92.30
2019-02-19T02:08:08.428Z,92.20
2019-02-19T02:10:36.815Z,92.20
2019-02-19T02:13:07.579Z,92.10
2019-02-19T02:15:42.440Z,92.20
2019-02-19T02:18:06.149Z,92.20
2019-02-19T02:20:34.576Z,92.30
2019-02-19T02:23:03.948Z,92.30
2019-02-19T02:25:32.324Z,92.40
2019-02-19T02:28:00.752Z,92.30
2019-02-19T02:30:29.155Z,92.70
2019-02-19T02:32:57.531Z,92.40
2019-02-19T02:35:25.925Z,92.50
2019-02-19T02:37:54.320Z,92.60
2019-02-19T02:40:22.805Z,92.60
2019-02-19T02:42:51.177Z,92.50
2019-02-19T02:45:19.640Z,92.50
2019-02-19T02:47:48.033Z,92.50
2019-02-19T02:50:18.324Z,92.50
2019-02-19T02:52:47.886Z,92.50
2019-02-19T02:55:17.312Z,92.50
2019-02-19T02:57:45.694Z,92.40
2019-02-19T03:00:14.195Z,92.50
2019-02-19T03:02:44.524Z,92.60
2019-02-19T03:05:12.920Z,92.50
2019-02-19T03:07:45.829Z,92.50
2019-02-19T03:10:14.252Z,92.50
2019-02-19T03:12:42.654Z,92.50
2019-02-19T03:15:11.552Z,92.50
2019-02-19T03:17:39.944Z,92.50
2019-02-19T03:20:08.350Z,92.50
2019-02-19T03:22:36.780Z,92.50
2019-02-19T03:25:05.436Z,92.60
2019-02-19T03:27:33.836Z,92.60
2019-02-19T03:30:02.228Z,92.60
2019-02-19T03:32:30.677Z,92.60
2019-02-19T03:34:59.114Z,92.60
2019-02-19T03:37:27.516Z,92.70
2019-02-19T03:39:55.920Z,92.80
2019-02-19T03:42:24.355Z,92.80
2019-02-19T03:44:52.767Z,92.80
2019-02-19T03:47:27.129Z,92.90
2019-02-19T03:49:55.523Z,92.80
2019-02-19T03:52:24.236Z,92.80
2019-02-19T03:54:52.663Z,92.70
2019-02-19T03:57:21.058Z,92.60
2019-02-19T03:59:50.471Z,92.70
2019-02-19T04:02:18.904Z,92.60
2019-02-19T04:04:47.287Z,92.60
2019-02-19T04:07:15.984Z,92.70
2019-02-19T04:09:44.395Z,93.20
2019-02-19T04:12:12.853Z,92.70
2019-02-19T04:14:41.249Z,92.70
2019-02-19T04:17:09.709Z,92.60
2019-02-19T04:19:38.060Z,92.70
2019-02-19T04:22:08.092Z,92.80
2019-02-19T04:24:37.481Z,92.70
2019-02-19T04:27:05.923Z,92.70
2019-02-19T04:29:35.251Z,92.70
2019-02-19T04:32:03.637Z,92.70
2019-02-19T04:34:32.481Z,92.70
2019-02-19T04:37:00.856Z,92.70
2019-02-19T04:39:31.594Z,92.70
2019-02-19T04:42:00.967Z,92.70
2019-02-19T04:44:29.356Z,92.50
2019-02-19T04:46:59.723Z,92.60
2019-02-19T04:49:28.451Z,92.60
2019-02-19T04:51:56.853Z,92.60
2019-02-19T04:54:25.358Z,92.60
2019-02-19T04:56:54.075Z,92.60
2019-02-19T04:59:22.470Z,92.70
2019-02-19T05:01:50.912Z,92.70
2019-02-19T05:04:19.291Z,92.60
2019-02-19T05:06:47.700Z,92.80
2019-02-19T05:09:16.132Z,92.70
2019-02-19T05:11:45.471Z,92.70
2019-02-19T05:14:13.867Z,92.70
2019-02-19T05:16:42.311Z,92.70
2019-02-19T05:19:10.724Z,92.70
2019-02-19T05:21:39.213Z,92.80
2019-02-19T05:24:07.674Z,92.80
2019-02-19T05:26:36.068Z,92.80
2019-02-19T05:29:04.458Z,92.80
2019-02-19T05:31:32.904Z,92.70
2019-02-19T05:34:01.289Z,92.70
2019-02-19T05:36:29.694Z,92.70
2019-02-19T05:38:58.109Z,92.80
2019-02-19T05:41:26.517Z,92.70
2019-02-19T05:43:54.889Z,92.80
2019-02-19T05:46:23.312Z,92.80
2019-02-19T05:48:51.748Z,92.80
2019-02-19T05:51:20.201Z,92.80
2019-02-19T05:53:48.575Z,92.70
2019-02-19T05:56:16.961Z,92.80
2019-02-19T05:58:45.387Z,92.80
2019-02-19T06:01:13.771Z,92.80
2019-02-19T06:03:42.204Z,92.90
2019-02-19T06:06:11.533Z,92.90
2019-02-19T06:08:40.900Z,92.80
2019-02-19T06:11:12.450Z,92.80
2019-02-19T06:13:40.883Z,92.80
2019-02-19T06:16:09.307Z,92.80
2019-02-19T06:18:37.686Z,92.70
2019-02-19T06:21:06.119Z,92.70
2019-02-19T06:23:34.535Z,92.70
2019-02-19T06:26:02.983Z,92.70
2019-02-19T06:28:31.494Z,92.70
2019-02-19T06:30:59.883Z,92.70
2019-02-19T06:33:28.270Z,92.60
2019-02-19T06:35:56.692Z,92.60
2019-02-19T06:38:25.193Z,92.60
2019-02-19T06:40:53.560Z,92.50
2019-02-19T06:43:22.507Z,92.50
2019-02-19T06:45:50.939Z,92.40
2019-02-19T06:48:19.357Z,92.40
2019-02-19T06:50:48.786Z,92.30
2019-02-19T06:53:17.186Z,92.20
2019-02-19T06:55:45.580Z,92.20
2019-02-19T06:58:20.841Z,92.20
2019-02-19T07:00:49.252Z,92.10
2019-02-19T07:03:19.314Z,92.00
2019-02-19T07:05:47.694Z,91.90
2019-02-19T07:08:16.162Z,91.90
2019-02-19T07:10:44.547Z,91.80
2019-02-19T07:13:12.947Z,91.70
2019-02-19T07:15:41.334Z,91.70
2019-02-19T07:18:09.872Z,91.60
2019-02-19T07:20:38.289Z,91.40
2019-02-19T07:23:06.714Z,91.30
2019-02-19T07:25:35.177Z,91.10
2019-02-19T07:28:05.647Z,91.00
2019-02-19T07:30:34.136Z,90.80
2019-02-19T07:33:03.489Z,90.70
2019-02-19T07:35:31.843Z,90.60
2019-02-19T07:38:02.182Z,90.60
2019-02-19T07:40:30.592Z,91.40
2019-02-19T07:42:59.147Z,88.40
2019-02-19T07:45:28.530Z,81.30
2019-02-19T07:47:56.935Z,76.60
2019-02-19T07:50:26.745Z,70.30
2019-02-19T07:52:55.147Z,64.40
2019-02-19T07:55:30.249Z,59.00
2019-02-19T07:57:58.699Z,59.70
2019-02-19T08:00:27.434Z,58.30
2019-02-19T08:02:55.862Z,53.90
2019-02-19T08:05:24.364Z,51.30
2019-02-19T08:07:52.861Z,52.00
2019-02-19T08:10:21.621Z,49.80
2019-02-19T08:12:50.005Z,49.30
2019-02-19T08:15:18.437Z,46.20
2019-02-19T08:17:46.891Z,44.60
2019-02-19T08:20:16.321Z,41.90
2019-02-19T08:22:44.948Z,40.80
2019-02-19T08:25:14.375Z,41.50
2019-02-19T08:27:42.852Z,39.30
2019-02-19T08:30:11.341Z,39.20
2019-02-19T08:32:39.759Z,38.80
2019-02-19T08:35:08.180Z,38.40
2019-02-19T08:37:36.998Z,36.20
2019-02-19T08:40:07.908Z,35.30
2019-02-19T08:42:36.381Z,34.70
2019-02-19T08:45:06.390Z,31.60
2019-02-19T08:47:42.261Z,31.30
2019-02-19T08:50:06.863Z,32.90
2019-02-19T08:52:35.260Z,31.70
2019-02-19T08:55:03.705Z,31.40
2019-02-19T08:57:32.146Z,31.10
2019-02-19T09:00:00.538Z,29.60
2019-02-19T09:02:28.935Z,29.90
2019-02-19T09:04:57.388Z,29.50
2019-02-19T09:07:25.771Z,28.70
2019-02-19T09:09:54.160Z,27.70
2019-02-19T09:12:22.945Z,27.50
2019-02-19T09:14:51.333Z,27.60
2019-02-19T09:17:19.730Z,28.20
2019-02-19T09:19:48.146Z,27.30
2019-02-19T09:22:16.570Z,27.40
2019-02-19T09:24:45.864Z,28.00
2019-02-19T09:27:14.679Z,28.00
2019-02-19T09:29:43.115Z,26.70
2019-02-19T09:32:11.839Z,26.70
2019-02-19T09:34:40.222Z,26.40
2019-02-19T09:37:08.654Z,26.30
2019-02-19T09:39:37.062Z,26.50
2019-02-19T09:42:05.464Z,26.20
2019-02-19T09:44:33.856Z,27.00
2019-02-19T09:47:02.297Z,26.40
2019-02-19T09:49:30.706Z,26.40
2019-02-19T09:51:59.099Z,26.70
2019-02-19T09:54:27.613Z,26.00
2019-02-19T09:56:55.988Z,25.10
2019-02-19T09:59:24.407Z,25.10
2019-02-19T10:01:52.820Z,24.80
2019-02-19T10:04:21.222Z,25.30
2019-02-19T10:06:49.626Z,25.80
2019-02-19T10:09:18.084Z,25.60
2019-02-19T10:11:46.493Z,24.50
2019-02-19T10:14:14.875Z,25.10
2019-02-19T10:16:43.267Z,26.60
2019-02-19T10:19:11.755Z,28.50
2019-02-19T10:21:40.157Z,29.70
2019-02-19T10:24:08.720Z,29.40
2019-02-19T10:26:37.142Z,30.20
2019-02-19T10:29:05.587Z,31.80
2019-02-19T10:31:34.440Z,32.80
2019-02-19T10:34:02.843Z,34.20
2019-02-19T10:36:31.230Z,35.00
2019-02-19T10:38:59.665Z,35.50
2019-02-19T10:41:28.075Z,36.70
2019-02-19T10:43:56.476Z,36.70
2019-02-19T10:46:24.872Z,37.10
2019-02-19T10:48:53.318Z,37.30
2019-02-19T10:51:21.745Z,37.70
2019-02-19T10:53:50.454Z,38.10
2019-02-19T10:56:18.871Z,38.20
2019-02-19T10:58:47.352Z,38.50
2019-02-19T11:01:15.917Z,38.80
2019-02-19T11:03:44.335Z,39.10
2019-02-19T11:06:12.761Z,39.60
2019-02-19T11:08:41.194Z,39.60
2019-02-19T11:11:09.606Z,39.80
2019-02-19T11:13:38.001Z,40.10
2019-02-19T11:16:06.724Z,40.30
2019-02-19T11:18:35.114Z,41.30
2019-02-19T11:21:03.513Z,40.70
2019-02-19T11:23:33.678Z,41.00
2019-02-19T11:26:02.171Z,41.00
2019-02-19T11:28:30.516Z,41.00
2019-02-19T11:30:58.944Z,41.40
2019-02-19T11:33:27.347Z,41.70
2019-02-19T11:35:55.760Z,41.80
2019-02-19T11:38:24.208Z,41.90
2019-02-19T11:40:52.657Z,42.30
2019-02-19T11:43:21.055Z,42.40
2019-02-19T11:45:49.477Z,42.70
2019-02-19T11:48:19.157Z,42.90
2019-02-19T11:50:47.685Z,42.90
2019-02-19T11:53:16.099Z,43.10
2019-02-19T11:55:44.508Z,43.20
2019-02-19T11:58:12.944Z,43.20
2019-02-19T12:00:43.200Z,43.30
2019-02-19T12:03:11.620Z,43.50
2019-02-19T12:05:40.025Z,43.60
2019-02-19T12:08:08.453Z,43.60
2019-02-19T12:10:36.875Z,43.80
2019-02-19T12:13:05.289Z,43.90
2019-02-19T12:15:35.449Z,44.10
2019-02-19T12:18:03.752Z,44.20
2019-02-19T12:20:32.160Z,44.30
2019-02-19T12:23:00.541Z,44.30
2019-02-19T12:25:29.265Z,44.30
2019-02-19T12:27:57.643Z,44.60
2019-02-19T12:30:26.073Z,44.80
2019-02-19T12:32:54.463Z,44.90
2019-02-19T12:35:22.854Z,45.00
2019-02-19T12:37:51.308Z,45.00
2019-02-19T12:40:19.708Z,45.00
2019-02-19T12:42:48.158Z,44.90
2019-02-19T12:45:16.573Z,45.00
2019-02-19T12:47:44.985Z,45.30
2019-02-19T12:50:18.213Z,46.00
2019-02-19T12:52:46.631Z,45.40
2019-02-19T12:55:15.059Z,45.70
2019-02-19T12:57:43.766Z,45.70
2019-02-19T13:00:19.562Z,45.80
2019-02-19T13:02:47.958Z,45.80
2019-02-19T13:05:16.820Z,45.90
2019-02-19T13:07:46.990Z,46.10
2019-02-19T13:10:15.280Z,46.30
2019-02-19T13:12:43.687Z,46.30
2019-02-19T13:15:14.417Z,46.30
2019-02-19T13:17:42.827Z,46.00
2019-02-19T13:20:14.621Z,46.00
2019-02-19T13:22:43.045Z,46.10
2019-02-19T13:25:12.058Z,46.20
2019-02-19T13:27:40.775Z,46.30
2019-02-19T13:30:22.220Z,46.40
2019-02-19T13:32:50.604Z,46.60
2019-02-19T13:35:19.013Z,46.60
2019-02-19T13:37:47.410Z,46.70
2019-02-19T13:40:18.747Z,46.70
2019-02-19T13:42:48.141Z,46.90
2019-02-19T13:45:16.512Z,47.00
2019-02-19T13:47:45.056Z,47.00
2019-02-19T13:50:22.132Z,47.10
2019-02-19T13:52:52.220Z,47.20
2019-02-19T13:55:22.273Z,47.10
2019-02-19T13:57:50.655Z,47.20
2019-02-19T14:00:20.785Z,46.70
2019-02-19T14:02:49.217Z,46.50
2019-02-19T14:05:17.616Z,46.60
2019-02-19T14:07:46.034Z,46.60
2019-02-19T14:10:14.434Z,46.70
2019-02-19T14:12:42.827Z,46.70
2019-02-19T14:15:30.434Z,46.80
2019-02-19T14:17:59.548Z,46.80
2019-02-19T14:20:29.591Z,47.00
2019-02-19T14:22:59.648Z,47.20
2019-02-19T14:25:35.628Z,47.40
2019-02-19T14:28:22.117Z,47.50
2019-02-19T14:30:52.204Z,47.80
2019-02-19T14:33:28.232Z,48.10
2019-02-19T14:36:01.016Z,48.30
2019-02-19T14:38:40.094Z,48.60
2019-02-19T14:41:10.173Z,48.70
2019-02-19T14:43:40.208Z,48.90
2019-02-19T14:46:18.976Z,49.10
2019-02-19T14:49:05.123Z,49.20
2019-02-19T14:51:51.705Z,49.40
2019-02-19T14:54:33.885Z,49.50
2019-02-19T14:57:06.588Z,49.60
2019-02-19T14:59:39.244Z,49.70
2019-02-19T15:02:09.272Z,49.90
2019-02-19T15:04:39.375Z,50.00
2019-02-19T15:07:18.780Z,50.00
2019-02-19T15:09:57.529Z,50.40
2019-02-19T15:12:42.561Z,50.30
2019-02-19T15:15:31.000Z,50.30
2019-02-19T15:18:12.996Z,50.50
2019-02-19T15:20:48.812Z,50.60
2019-02-19T15:23:35.084Z,50.80
2019-02-19T15:26:11.021Z,51.00
2019-02-19T15:28:41.038Z,51.20
2019-02-19T15:31:29.340Z,51.40
2019-02-19T15:34:11.688Z,51.70
2019-02-19T15:36:42.037Z,52.50
2019-02-19T15:39:24.078Z,52.10
2019-02-19T15:41:56.884Z,52.20
2019-02-19T15:44:26.925Z,52.50
2019-02-19T15:47:06.424Z,52.70
2019-02-19T15:49:51.377Z,53.00
2019-02-19T15:52:21.854Z,53.30
2019-02-19T15:54:57.583Z,53.50
2019-02-19T15:57:39.715Z,53.70
2019-02-19T16:00:27.080Z,53.80
2019-02-19T16:02:57.136Z,54.10
2019-02-19T16:05:39.286Z,54.30
2019-02-19T16:08:24.668Z,54.50
2019-02-19T16:11:06.541Z,54.70
2019-02-19T16:13:48.851Z,54.90
2019-02-19T16:16:24.834Z,55.10
2019-02-19T16:19:00.929Z,55.20
2019-02-19T16:21:34.100Z,55.40
2019-02-19T16:24:04.168Z,55.60
2019-02-19T16:26:34.203Z,55.70
2019-02-19T16:29:07.073Z,55.90
2019-02-19T16:31:40.135Z,56.10
2019-02-19T16:34:26.386Z,56.10
2019-02-19T16:36:59.211Z,56.20
2019-02-19T16:39:35.324Z,56.40
2019-02-19T16:42:08.629Z,56.60
2019-02-19T16:44:41.563Z,56.70
2019-02-19T16:47:11.608Z,57.00
2019-02-19T16:49:47.428Z,57.10
2019-02-19T16:52:23.305Z,57.20
2019-02-19T16:54:53.358Z,57.50
2019-02-19T16:57:26.407Z,57.60
2019-02-19T16:59:56.463Z,57.70
2019-02-19T17:02:42.800Z,57.90
2019-02-19T17:05:27.732Z,58.10
2019-02-19T17:07:58.145Z,58.40
2019-02-19T17:10:31.042Z,58.60
2019-02-19T17:13:01.143Z,58.80
2019-02-19T17:15:34.296Z,58.90
2019-02-19T17:18:04.318Z,59.10
2019-02-19T17:20:40.488Z,59.40
2019-02-19T17:23:26.677Z,59.50
2019-02-19T17:26:06.833Z,59.70
2019-02-19T17:28:39.607Z,59.80
2019-02-19T17:31:09.648Z,60.00
2019-02-19T17:33:41.649Z,60.10
2019-02-19T17:36:23.664Z,60.20
2019-02-19T17:38:53.749Z,60.40
2019-02-19T17:41:33.047Z,60.70
2019-02-19T17:44:11.992Z,60.70
2019-02-19T17:46:42.063Z,61.10
2019-02-19T17:49:12.114Z,61.70
2019-02-19T17:51:45.141Z,61.90
2019-02-19T17:54:18.728Z,61.80
2019-02-19T17:56:51.538Z,61.80
2019-02-19T17:59:24.530Z,61.70
2019-02-19T18:02:11.099Z,61.50
2019-02-19T18:04:41.135Z,61.50
2019-02-19T18:07:20.131Z,61.40
2019-02-19T18:10:05.468Z,61.50
2019-02-19T18:12:41.293Z,61.30
2019-02-19T18:15:14.279Z,61.30
2019-02-19T18:18:01.065Z,61.30
2019-02-19T18:20:29.470Z,61.10
2019-02-19T18:22:57.867Z,61.00
2019-02-19T18:25:26.277Z,61.30
2019-02-19T18:27:54.681Z,61.50
2019-02-19T18:30:23.123Z,61.80
2019-02-19T18:32:52.859Z,62.00
2019-02-19T18:35:23.000Z,62.30
2019-02-19T18:37:52.356Z,62.60
2019-02-19T18:40:20.796Z,63.00
2019-02-19T18:42:50.354Z,63.30
2019-02-19T18:45:19.713Z,63.90
2019-02-19T18:47:48.118Z,64.10
2019-02-19T18:50:16.526Z,64.50
2019-02-19T18:52:45.923Z,64.90
2019-02-19T18:55:15.297Z,65.10
2019-02-19T18:57:44.444Z,65.40
2019-02-19T19:00:13.423Z,65.70
2019-02-19T19:02:42.763Z,66.00
2019-02-19T19:05:11.156Z,66.20
2019-02-19T19:07:39.568Z,66.70
2019-02-19T19:10:10.339Z,67.00
2019-02-19T19:12:38.724Z,67.30
2019-02-19T19:15:11.522Z,67.90
2019-02-19T19:17:39.941Z,68.30
2019-02-19T19:20:10.593Z,68.90
2019-02-19T19:22:38.987Z,69.40
2019-02-19T19:25:07.894Z,70.00
2019-02-19T19:27:36.296Z,70.60
2019-02-19T19:30:07.956Z,71.00
2019-02-19T19:32:36.418Z,71.30
2019-02-19T19:35:06.940Z,71.60
2019-02-19T19:37:35.359Z,71.60
2019-02-19T19:40:04.745Z,71.80
2019-02-19T19:42:33.125Z,72.00
2019-02-19T19:45:01.566Z,72.20
2019-02-19T19:47:30.008Z,72.80
2019-02-19T19:49:58.392Z,73.60
2019-02-19T19:52:26.778Z,73.90
2019-02-19T19:54:55.178Z,74.20
2019-02-19T19:57:23.739Z,74.40
2019-02-19T19:59:52.189Z,74.60
2019-02-19T20:02:20.572Z,74.90
2019-02-19T20:04:48.980Z,75.00
2019-02-19T20:07:17.451Z,75.30
2019-02-19T20:09:45.956Z,75.70
2019-02-19T20:12:14.362Z,75.70
2019-02-19T20:14:42.750Z,75.80
2019-02-19T20:17:11.160Z,76.00
2019-02-19T20:19:39.596Z,76.10
2019-02-19T20:22:07.976Z,76.40
2019-02-19T20:24:36.425Z,76.80
2019-02-19T20:27:04.890Z,76.90
2019-02-19T20:29:34.280Z,77.00
2019-02-19T20:32:02.808Z,77.20
2019-02-19T20:34:31.142Z,77.10
2019-02-19T20:36:59.548Z,77.20
2019-02-19T20:39:27.987Z,77.30
2019-02-19T20:41:56.366Z,77.10
2019-02-19T20:44:24.803Z,77.10
2019-02-19T20:46:53.223Z,77.00
2019-02-19T20:49:21.688Z,77.00
2019-02-19T20:51:50.060Z,76.90
2019-02-19T20:54:18.458Z,77.00
2019-02-19T20:56:47.226Z,77.00
2019-02-19T20:59:15.649Z,77.00
2019-02-19T21:01:44.036Z,77.10
2019-02-19T21:04:12.462Z,77.30
2019-02-19T21:06:40.881Z,77.30
2019-02-19T21:09:09.372Z,77.30
2019-02-19T21:11:38.103Z,77.30
2019-02-19T21:14:06.503Z,77.30
2019-02-19T21:16:34.924Z,77.20
2019-02-19T21:19:04.930Z,77.20
2019-02-19T21:21:33.539Z,77.20
2019-02-19T21:24:01.952Z,77.30
2019-02-19T21:26:32.061Z,77.40
2019-02-19T21:29:00.541Z,77.50
2019-02-19T21:31:29.021Z,77.60
2019-02-19T21:33:57.409Z,77.70
2019-02-19T21:36:26.158Z,77.60
2019-02-19T21:38:54.810Z,77.40
2019-02-19T21:41:23.160Z,77.60
2019-02-19T21:43:51.902Z,77.60
2019-02-19T21:46:20.301Z,77.90
2019-02-19T21:48:50.070Z,78.10
2019-02-19T21:51:18.551Z,78.40
2019-02-19T21:53:47.067Z,78.80
2019-02-19T21:56:15.471Z,79.10
2019-02-19T21:58:43.845Z,79.40
2019-02-19T22:01:12.301Z,79.80
2019-02-19T22:03:40.702Z,80.20
2019-02-19T22:06:09.091Z,80.30
2019-02-19T22:08:37.515Z,80.30
2019-02-19T22:11:06.077Z,80.30
2019-02-19T22:13:34.475Z,80.40
2019-02-19T22:16:02.861Z,80.70
2019-02-19T22:18:31.308Z,81.10
2019-02-19T22:21:04.633Z,81.20
2019-02-19T22:23:33.034Z,81.00
2019-02-19T22:26:01.520Z,81.70
2019-02-19T22:28:29.909Z,80.60
2019-02-19T22:30:59.276Z,80.40
2019-02-19T22:33:27.747Z,80.20
2019-02-19T22:35:56.159Z,80.10
2019-02-19T22:38:24.627Z,80.00
2019-02-19T22:40:55.247Z,79.80
2019-02-19T22:43:23.100Z,79.70
2019-02-19T22:45:51.511Z,79.30
2019-02-19T22:48:20.247Z,79.10
2019-02-19T22:50:48.978Z,79.30
2019-02-19T22:53:35.171Z,79.60
2019-02-19T22:56:05.262Z,80.00
2019-02-19T22:58:33.651Z,80.30
2019-02-19T23:01:07.659Z,80.30
2019-02-19T23:03:36.103Z,80.40
2019-02-19T23:06:04.488Z,80.40
2019-02-19T23:08:32.892Z,80.40
2019-02-19T23:11:01.351Z,80.40
2019-02-19T23:13:29.732Z,80.60
2019-02-19T23:15:58.130Z,80.70
2019-02-19T23:18:26.615Z,80.70
2019-02-19T23:20:55.061Z,80.70
2019-02-19T23:23:23.464Z,80.70
2019-02-19T23:25:51.861Z,80.70
2019-02-19T23:28:20.328Z,80.50
2019-02-19T23:30:48.714Z,80.50
2019-02-19T23:33:17.109Z,80.40
2019-02-19T23:36:05.272Z,80.30
2019-02-19T23:38:33.756Z,80.20
2019-02-19T23:41:03.078Z,80.30
2019-02-19T23:43:31.463Z,80.30
2019-02-19T23:45:59.864Z,80.30
2019-02-19T23:48:28.279Z,80.20
2019-02-19T23:50:56.765Z,80.20
2019-02-19T23:53:25.622Z,81.00
2019-02-19T23:55:54.044Z,80.10
2019-02-19T23:58:22.450Z,80.00
